Time;durP1;ratioP1;P1;durP2;ratioP2;P2;SDS_P1;SDS_P2;PMS_P1;PMS_P2;Temp;Humidity;BMP_temperature;BMP_pressure;BME280_temperature;BME280_humidity;BME280_pressure;Samples;Min_cycle;Max_cycle;Signal;HPM_P1;HPM_P2
2022/03/06 00:02:14;;;;;;;9.48;6.75;;;21.80;58.20;;;;;;5093790;28;20051;-71
2022/03/06 00:04:41;;;;;;;9.60;6.60;;;21.80;58.30;;;;;;5095899;28;20036;-71
2022/03/06 00:07:07;;;;;;;12.55;7.53;;;21.70;58.30;;;;;;5096330;28;20044;-72
2022/03/06 00:09:33;;;;;;;11.98;7.47;;;21.70;58.40;;;;;;5096069;28;20040;-71
2022/03/06 00:12:00;;;;;;;9.40;6.97;;;21.70;58.20;;;;;;5087982;28;20078;-71
2022/03/06 00:14:26;;;;;;;9.50;7.07;;;21.60;58.20;;;;;;5080521;28;20043;-71
2022/03/06 00:16:53;;;;;;;11.57;7.30;;;21.60;58.40;;;;;;5089144;28;20047;-71
2022/03/06 00:19:20;;;;;;;12.35;7.47;;;21.50;58.30;;;;;;5095930;28;20128;-71
2022/03/06 00:21:47;;;;;;;11.05;6.93;;;21.70;58.50;;;;;;5095797;28;20049;-71
2022/03/06 00:24:13;;;;;;;10.68;7.05;;;21.60;58.40;;;;;;5096291;28;20040;-71
2022/03/06 00:26:39;;;;;;;11.18;6.97;;;21.60;58.30;;;;;;5095581;28;20108;-72
2022/03/06 00:29:05;;;;;;;11.73;6.38;;;21.70;58.20;;;;;;5095998;28;20135;-71
2022/03/06 00:31:32;;;;;;;10.40;7.03;;;21.60;58.30;;;;;;5095879;28;20052;-71
2022/03/06 00:33:58;;;;;;;10.55;7.40;;;21.70;58.30;;;;;;5096031;28;20029;-71
2022/03/06 00:36:24;;;;;;;11.15;7.18;;;21.70;58.30;;;;;;5095783;28;20090;-71
2022/03/06 00:38:50;;;;;;;10.80;7.18;;;21.60;58.10;;;;;;5095661;28;20036;-71
2022/03/06 00:41:17;;;;;;;15.27;7.88;;;21.70;58.10;;;;;;5091667;28;20041;-71
2022/03/06 00:43:43;;;;;;;11.50;7.10;;;21.70;58.10;;;;;;5092312;28;20068;-72
2022/03/06 00:46:09;;;;;;;11.35;6.28;;;21.80;58.10;;;;;;5083691;28;20044;-71
2022/03/06 00:48:36;;;;;;;9.98;6.43;;;21.60;57.90;;;;;;5094836;28;20074;-71
2022/03/06 00:51:03;;;;;;;11.38;7.78;;;21.60;57.90;;;;;;5095092;28;20092;-71
2022/03/06 00:53:29;;;;;;;11.27;7.63;;;21.50;57.80;;;;;;5095456;28;20028;-71
2022/03/06 00:55:55;;;;;;;13.85;7.65;;;21.50;57.90;;;;;;5094676;28;20036;-71
2022/03/06 00:58:21;;;;;;;10.93;7.03;;;21.50;57.90;;;;;;5094943;28;20043;-71
2022/03/06 01:00:48;;;;;;;11.55;6.43;;;21.50;57.80;;;;;;5093887;28;20052;-71
2022/03/06 01:03:18;;;;;;;11.45;6.90;;;21.60;57.80;;;;;;5094886;28;20056;-71
2022/03/06 01:05:45;;;;;;;9.15;6.13;;;21.40;57.70;;;;;;5097786;28;20067;-71
2022/03/06 01:08:11;;;;;;;11.88;6.65;;;21.40;57.70;;;;;;5097956;28;20124;-71
2022/03/06 01:10:41;;;;;;;9.88;6.20;;;21.40;57.70;;;;;;5097330;28;20060;-71
2022/03/06 01:13:08;;;;;;;10.73;6.93;;;21.30;57.90;;;;;;5086936;28;20045;-71
2022/03/06 01:15:35;;;;;;;9.30;6.25;;;21.30;57.90;;;;;;5079642;28;20057;-71
2022/03/06 01:18:01;;;;;;;10.93;6.57;;;21.40;57.80;;;;;;5098629;28;20041;-71
2022/03/06 01:20:27;;;;;;;10.93;6.82;;;21.40;57.60;;;;;;5098351;28;20036;-71
2022/03/06 01:22:54;;;;;;;11.85;7.95;;;21.40;57.50;;;;;;5099290;28;20051;-71
2022/03/06 01:25:20;;;;;;;10.20;6.65;;;21.40;57.30;;;;;;5098850;28;20040;-71
2022/03/06 01:27:47;;;;;;;10.18;6.60;;;21.40;57.20;;;;;;5097595;28;20060;-71
2022/03/06 01:30:21;;;;;;;9.10;6.35;;;21.50;57.20;;;;;;5098243;28;20044;-71
2022/03/06 01:32:50;;;;;;;10.93;6.78;;;21.40;57.00;;;;;;5094439;28;20044;-71
2022/03/06 01:35:17;;;;;;;8.85;6.63;;;21.40;56.90;;;;;;5098346;28;20044;-71
2022/03/06 01:37:43;;;;;;;11.55;6.35;;;21.50;56.90;;;;;;5098885;28;20078;-71
2022/03/06 01:40:12;;;;;;;10.07;6.95;;;21.40;56.70;;;;;;5098447;28;20071;-71
2022/03/06 01:42:43;;;;;;;9.80;5.97;;;21.30;56.70;;;;;;5096376;28;20074;-71
2022/03/06 01:45:10;;;;;;;8.80;6.30;;;21.40;56.70;;;;;;5097687;28;20049;-71
2022/03/06 01:47:41;;;;;;;10.60;6.25;;;21.50;56.70;;;;;;5078661;28;20041;-71
2022/03/06 01:50:28;;;;;;;11.57;6.40;;;21.40;56.60;;;;;;5086757;28;20151;-71
2022/03/06 01:52:56;;;;;;;10.45;5.90;;;21.30;56.60;;;;;;5098690;28;20052;-71
2022/03/06 01:55:24;;;;;;;9.88;5.53;;;21.30;56.70;;;;;;5098253;28;20039;-72
2022/03/06 01:57:52;;;;;;;7.70;5.32;;;21.20;56.80;;;;;;5097732;28;20033;-71
2022/03/06 02:00:22;;;;;;;8.43;5.57;;;21.30;57.10;;;;;;5097798;28;20087;-71
2022/03/06 02:02:49;;;;;;;11.00;6.55;;;21.10;57.10;;;;;;5098345;28;20040;-71
2022/03/06 02:05:15;;;;;;;10.20;6.35;;;21.20;57.30;;;;;;5097503;28;20087;-71
2022/03/06 02:07:41;;;;;;;9.00;6.55;;;21.20;57.50;;;;;;5098180;28;20036;-71
2022/03/06 02:10:09;;;;;;;9.95;6.13;;;21.10;57.70;;;;;;5097829;28;20055;-71
2022/03/06 02:12:36;;;;;;;13.85;6.60;;;21.10;57.90;;;;;;5087890;28;20048;-71
2022/03/06 02:15:07;;;;;;;9.80;6.00;;;21.10;57.80;;;;;;5096952;28;20040;-71
2022/03/06 02:17:33;;;;;;;9.98;6.53;;;21.20;57.70;;;;;;5097902;28;20045;-71
2022/03/06 02:20:20;;;;;;;10.27;6.35;;;21.20;57.50;;;;;;5096902;28;20076;-72
2022/03/06 02:22:49;;;;;;;8.68;5.90;;;21.30;57.50;;;;;;5097551;28;20603;-71
2022/03/06 02:25:22;;;;;;;9.85;6.15;;;21.20;57.30;;;;;;5097888;28;20078;-71
2022/03/06 02:27:51;;;;;;;10.85;6.25;;;21.20;57.30;;;;;;5096886;28;20067;-71
2022/03/06 02:30:21;;;;;;;8.27;5.78;;;21.20;57.30;;;;;;5097491;28;20067;-71
2022/03/06 02:32:49;;;;;;;9.13;5.90;;;21.30;57.40;;;;;;5077858;28;20037;-71
2022/03/06 02:35:16;;;;;;;13.25;8.38;;;21.20;57.20;;;;;;5087242;28;20096;-71
2022/03/06 02:37:43;;;;;;;18.65;11.07;;;21.30;57.20;;;;;;5097760;28;20443;-71
2022/03/06 02:40:12;;;;;;;15.20;9.73;;;21.20;57.10;;;;;;5096715;28;20098;-71
2022/03/06 02:42:41;;;;;;;17.52;10.85;;;21.20;57.10;;;;;;5097459;28;20063;-71
2022/03/06 02:45:10;;;;;;;14.80;10.30;;;21.20;57.30;;;;;;5097474;28;20120;-71
2022/03/06 02:47:36;;;;;;;13.25;8.93;;;21.30;57.50;;;;;;5097460;28;20058;-71
2022/03/06 02:50:05;;;;;;;16.05;8.68;;;21.10;57.60;;;;;;5096620;28;20056;-71
2022/03/06 02:52:32;;;;;;;13.82;7.85;;;21.10;57.90;;;;;;5097457;28;20032;-71
2022/03/06 02:54:58;;;;;;;12.25;7.50;;;21.00;58.10;;;;;;5097088;28;20071;-71
2022/03/06 02:57:24;;;;;;;9.77;7.25;;;21.00;58.00;;;;;;5088664;28;20041;-71
2022/03/06 02:59:50;;;;;;;10.05;6.40;;;21.00;58.20;;;;;;5096793;28;20052;-71
2022/03/06 03:02:16;;;;;;;9.57;6.43;;;21.10;58.60;;;;;;5097101;28;20094;-72
2022/03/06 03:04:43;;;;;;;9.35;6.25;;;20.90;58.60;;;;;;5097003;28;20059;-71
2022/03/06 03:07:09;;;;;;;9.55;5.43;;;21.00;58.90;;;;;;5096639;28;20068;-71
2022/03/06 03:09:36;;;;;;;9.15;6.25;;;21.00;58.90;;;;;;5096636;28;20040;-72
2022/03/06 03:12:03;;;;;;;9.10;6.00;;;21.00;58.80;;;;;;5079417;28;20049;-71
2022/03/06 03:14:32;;;;;;;9.25;5.95;;;21.00;58.50;;;;;;5096565;28;20041;-71
2022/03/06 03:17:02;;;;;;;10.85;6.70;;;21.10;58.30;;;;;;5096129;28;20040;-71
2022/03/06 03:19:28;;;;;;;9.88;6.28;;;21.10;58.20;;;;;;5095864;28;20044;-71
2022/03/06 03:21:55;;;;;;;8.57;6.40;;;21.00;58.00;;;;;;5096354;28;20063;-71
2022/03/06 03:24:23;;;;;;;8.82;6.05;;;21.10;58.10;;;;;;5095647;28;20131;-71
2022/03/06 03:26:49;;;;;;;8.30;5.85;;;21.10;58.00;;;;;;5080407;28;20053;-71
2022/03/06 03:29:15;;;;;;;9.07;6.30;;;21.10;58.10;;;;;;5086626;28;20068;-72
2022/03/06 03:31:42;;;;;;;9.10;6.28;;;21.20;58.10;;;;;;5095752;28;20041;-72
2022/03/06 03:34:08;;;;;;;12.00;6.20;;;21.10;58.00;;;;;;5096829;28;20128;-71
2022/03/06 03:36:34;;;;;;;11.75;7.93;;;21.00;57.90;;;;;;5096857;28;20045;-71
2022/03/06 03:39:00;;;;;;;10.70;7.35;;;21.00;58.10;;;;;;5096389;28;20099;-71
2022/03/06 03:41:26;;;;;;;11.45;7.40;;;21.00;57.90;;;;;;5084198;28;20045;-72
2022/03/06 03:43:53;;;;;;;10.02;6.95;;;21.00;58.20;;;;;;5075493;28;20059;-71
2022/03/06 03:46:19;;;;;;;10.65;7.07;;;21.00;58.40;;;;;;5085715;28;20051;-71
2022/03/06 03:48:46;;;;;;;10.13;6.15;;;21.00;58.60;;;;;;5079084;28;20079;-71
2022/03/06 03:51:12;;;;;;;8.30;5.60;;;20.80;58.90;;;;;;5096183;28;20036;-71
2022/03/06 03:53:38;;;;;;;8.77;6.05;;;20.90;59.10;;;;;;5096654;28;20033;-71
2022/03/06 03:56:05;;;;;;;8.32;5.20;;;20.90;59.20;;;;;;5094556;28;20054;-71
2022/03/06 03:58:32;;;;;;;8.00;5.07;;;20.80;59.20;;;;;;5096486;28;20123;-71
2022/03/06 04:00:59;;;;;;;9.75;5.75;;;20.90;59.50;;;;;;5096167;28;20055;-71
2022/03/06 04:03:25;;;;;;;9.07;5.30;;;20.80;59.20;;;;;;5096225;28;20039;-71
2022/03/06 04:05:51;;;;;;;8.77;5.50;;;20.90;59.20;;;;;;5096000;28;20037;-71
2022/03/06 04:08:17;;;;;;;7.00;4.78;;;20.90;59.00;;;;;;5095714;28;20088;-71
2022/03/06 04:10:43;;;;;;;10.60;5.90;;;21.00;58.70;;;;;;5086908;28;20037;-71
2022/03/06 04:13:10;;;;;;;7.43;5.43;;;21.00;58.50;;;;;;5076307;28;20037;-72
2022/03/06 04:15:36;;;;;;;8.25;5.32;;;21.00;58.50;;;;;;5087573;28;20333;-72
2022/03/06 04:18:03;;;;;;;9.55;5.70;;;21.10;58.40;;;;;;5095847;28;20050;-71
2022/03/06 04:20:30;;;;;;;10.00;5.55;;;21.10;58.40;;;;;;5095711;28;20040;-71
2022/03/06 04:22:56;;;;;;;7.32;5.20;;;21.00;58.20;;;;;;5096169;28;20047;-71
2022/03/06 04:25:23;;;;;;;6.90;5.50;;;21.00;58.10;;;;;;5094642;28;20109;-72
2022/03/06 04:27:49;;;;;;;12.35;5.93;;;21.00;58.20;;;;;;5096008;28;20056;-71
2022/03/06 04:30:15;;;;;;;9.75;5.90;;;21.00;58.30;;;;;;5095439;28;20049;-71
2022/03/06 04:32:42;;;;;;;10.73;5.65;;;21.00;58.60;;;;;;5096087;28;20112;-71
2022/03/06 04:35:09;;;;;;;11.60;5.78;;;20.90;59.10;;;;;;5095586;28;20036;-72
2022/03/06 04:37:35;;;;;;;8.15;5.65;;;20.80;59.40;;;;;;5096201;28;20142;-71
2022/03/06 04:40:03;;;;;;;7.97;5.32;;;20.90;59.60;;;;;;5098268;28;20036;-72
2022/03/06 04:42:29;;;;;;;9.23;5.93;;;20.90;59.80;;;;;;5089675;28;20037;-71
2022/03/06 04:44:55;;;;;;;7.75;5.30;;;20.90;60.10;;;;;;5079827;28;20037;-71
2022/03/06 04:47:21;;;;;;;7.35;5.80;;;20.80;60.40;;;;;;5097720;28;20045;-71
2022/03/06 04:49:47;;;;;;;7.57;5.43;;;20.80;60.90;;;;;;5099383;28;20063;-72
2022/03/06 04:52:13;;;;;;;8.88;5.53;;;20.80;60.60;;;;;;5098589;28;20060;-71
2022/03/06 04:54:39;;;;;;;10.57;5.82;;;20.70;60.40;;;;;;5096843;28;20092;-71
2022/03/06 04:57:05;;;;;;;7.78;5.75;;;20.80;60.10;;;;;;5099032;28;20033;-71
2022/03/06 04:59:31;;;;;;;6.70;5.10;;;20.80;60.00;;;;;;5099421;28;20041;-71
2022/03/06 05:02:23;;;;;;;9.30;5.80;;;20.80;59.70;;;;;;5098535;28;20112;-71
2022/03/06 05:04:50;;;;;;;9.02;5.68;;;20.80;59.50;;;;;;5098404;28;20044;-71
2022/03/06 05:07:16;;;;;;;9.02;6.13;;;20.90;59.50;;;;;;5097983;28;20040;-71
2022/03/06 05:09:42;;;;;;;9.30;6.18;;;20.80;59.20;;;;;;5093606;28;20048;-71
2022/03/06 05:12:09;;;;;;;10.43;6.28;;;20.80;59.20;;;;;;5078639;28;20091;-71
2022/03/06 05:14:35;;;;;;;11.02;6.22;;;20.90;59.10;;;;;;5090750;28;20041;-71
2022/03/06 05:17:01;;;;;;;9.25;6.50;;;20.90;59.10;;;;;;5098365;28;20066;-72
2022/03/06 05:19:27;;;;;;;12.35;7.47;;;20.90;59.10;;;;;;5098124;28;20036;-71
2022/03/06 05:21:54;;;;;;;10.57;7.47;;;20.80;59.10;;;;;;5098171;28;20079;-71
2022/03/06 05:24:20;;;;;;;12.02;7.75;;;20.90;59.30;;;;;;5097752;28;20051;-71
2022/03/06 05:26:46;;;;;;;10.60;7.47;;;20.90;59.60;;;;;;5094647;28;20056;-71
2022/03/06 05:29:12;;;;;;;10.43;6.68;;;20.70;59.80;;;;;;5088456;28;20047;-71
2022/03/06 05:31:39;;;;;;;11.10;6.68;;;20.80;60.00;;;;;;5101410;28;20036;-71
2022/03/06 05:34:05;;;;;;;10.50;6.85;;;20.70;60.40;;;;;;5118753;28;20051;-71
2022/03/06 05:36:31;;;;;;;9.90;6.28;;;20.70;60.80;;;;;;5108182;28;20063;-72
2022/03/06 05:38:57;;;;;;;9.07;6.13;;;20.70;61.30;;;;;;5097329;28;20055;-72
2022/03/06 05:41:23;;;;;;;11.00;6.22;;;20.80;61.40;;;;;;5085100;28;20040;-71
2022/03/06 05:43:49;;;;;;;10.15;6.78;;;20.70;61.50;;;;;;5089846;28;20045;-72
2022/03/06 05:46:16;;;;;;;10.68;5.43;;;20.70;60.90;;;;;;5113349;28;20032;-71
2022/03/06 05:48:42;;;;;;;12.70;6.93;;;20.70;60.70;;;;;;5116730;28;20112;-71
2022/03/06 05:51:09;;;;;;;10.93;6.47;;;20.60;60.50;;;;;;5097793;28;20079;-71
2022/03/06 05:53:35;;;;;;;14.18;7.22;;;20.80;60.40;;;;;;5096248;28;20133;-72
2022/03/06 05:56:01;;;;;;;10.35;7.07;;;20.70;60.30;;;;;;5094188;28;20065;-71
2022/03/06 05:58:27;;;;;;;14.68;7.25;;;20.70;60.10;;;;;;5084436;28;20041;-71
2022/03/06 06:00:53;;;;;;;11.15;7.47;;;20.80;60.00;;;;;;5077462;28;20049;-71
2022/03/06 06:03:20;;;;;;;16.48;8.25;;;20.70;59.90;;;;;;5077869;28;20044;-71
2022/03/06 06:05:46;;;;;;;9.75;6.25;;;20.80;59.70;;;;;;5077690;28;20045;-71
2022/03/06 06:08:11;;;;;;;9.43;6.00;;;20.80;59.70;;;;;;5079607;28;20044;-71
2022/03/06 06:10:38;;;;;;;10.38;5.35;;;20.70;59.50;;;;;;5094806;28;20055;-71
2022/03/06 06:13:06;;;;;;;9.30;5.40;;;20.70;59.50;;;;;;5097349;28;20196;-71
2022/03/06 06:15:32;;;;;;;10.23;5.28;;;20.70;59.70;;;;;;5097393;28;20071;-71
2022/03/06 06:17:58;;;;;;;10.23;5.82;;;20.80;59.90;;;;;;5097526;28;20033;-71
2022/03/06 06:20:25;;;;;;;12.02;6.55;;;20.90;60.30;;;;;;5096756;28;20044;-71
2022/03/06 06:22:53;;;;;;;9.52;5.72;;;20.80;60.60;;;;;;5077373;28;20052;-71
2022/03/06 06:25:19;;;;;;;7.90;5.55;;;20.60;60.80;;;;;;5091603;28;20036;-72
2022/03/06 06:27:45;;;;;;;7.05;4.93;;;20.70;60.80;;;;;;5095271;28;20079;-71
2022/03/06 06:30:13;;;;;;;10.25;5.57;;;20.60;59.90;;;;;;5096359;28;20044;-71
2022/03/06 06:32:39;;;;;;;4.85;3.40;;;20.60;59.90;;;;;;5095592;28;20041;-73
2022/03/06 06:35:06;;;;;;;4.70;2.97;;;20.50;50.00;;;;;;5095490;28;20051;-72
2022/03/06 06:37:32;;;;;;;4.07;2.75;;;20.60;47.60;;;;;;5096317;28;20047;-71
2022/03/06 06:40:00;;;;;;;2.88;2.22;;;20.70;46.30;;;;;;5095832;28;20074;-71
2022/03/06 06:42:25;;;;;;;3.72;2.47;;;20.80;45.70;;;;;;5094168;28;20043;-70
2022/03/06 06:44:52;;;;;;;3.88;2.15;;;20.90;43.80;;;;;;5096498;28;20044;-71
2022/03/06 06:47:18;;;;;;;6.72;2.55;;;21.10;44.30;;;;;;5096218;28;20037;-71
2022/03/06 06:49:44;;;;;;;3.20;2.90;;;21.30;42.00;;;;;;5096055;28;20048;-71
2022/03/06 06:52:10;;;;;;;5.88;2.58;;;21.30;40.50;;;;;;5096004;28;20074;-70
2022/03/06 06:54:36;;;;;;;5.72;2.65;;;21.50;43.80;;;;;;5095668;28;20054;-70
2022/03/06 06:57:02;;;;;;;6.00;3.20;;;21.50;44.60;;;;;;5093995;28;20036;-70
2022/03/06 06:59:28;;;;;;;5.18;3.22;;;21.60;43.40;;;;;;5095817;28;20120;-70
2022/03/06 07:01:54;;;;;;;3.42;2.85;;;21.70;44.00;;;;;;5093074;28;20048;-71
2022/03/06 07:04:20;;;;;;;10.40;6.22;;;21.70;43.60;;;;;;5096121;28;20056;-72
2022/03/06 07:06:46;;;;;;;7.25;5.90;;;21.80;42.20;;;;;;5093978;28;20044;-71
2022/03/06 07:09:12;;;;;;;9.48;5.38;;;21.70;43.40;;;;;;5092777;28;20060;-72
2022/03/06 07:11:39;;;;;;;11.13;7.30;;;21.80;43.40;;;;;;5088497;28;20055;-71
2022/03/06 07:14:05;;;;;;;10.40;7.15;;;22.00;44.10;;;;;;5095980;28;20077;-71
2022/03/06 07:16:32;;;;;;;9.70;5.70;;;22.00;42.90;;;;;;5095324;28;20040;-72
2022/03/06 07:18:58;;;;;;;6.82;5.32;;;22.10;54.50;;;;;;5076762;28;20040;-72
2022/03/06 07:21:25;;;;;;;6.53;4.88;;;22.10;56.10;;;;;;5091476;28;20063;-71
2022/03/06 07:23:51;;;;;;;8.75;5.03;;;22.10;57.50;;;;;;5078187;28;20059;-72
2022/03/06 07:26:17;;;;;;;13.05;11.00;;;22.00;59.20;;;;;;5094945;28;20657;-72
2022/03/06 07:28:43;;;;;;;7.13;4.68;;;22.00;59.40;;;;;;5096049;28;20040;-73
2022/03/06 07:31:09;;;;;;;4.88;3.13;;;22.20;60.10;;;;;;5095053;28;20063;-74
2022/03/06 07:33:35;;;;;;;7.38;4.90;;;22.20;60.20;;;;;;5095921;28;20040;-74
2022/03/06 07:36:02;;;;;;;9.00;5.47;;;22.30;61.20;;;;;;5095322;28;20043;-74
2022/03/06 07:38:28;;;;;;;8.15;5.60;;;22.40;61.90;;;;;;5095209;28;20066;-74
2022/03/06 07:40:54;;;;;;;5.53;4.32;;;22.50;61.40;;;;;;5093488;28;20036;-74
2022/03/06 07:43:20;;;;;;;5.35;4.03;;;22.50;59.70;;;;;;5079850;28;20032;-74
2022/03/06 07:45:46;;;;;;;14.88;5.93;;;22.50;59.30;;;;;;5080934;28;20036;-73
2022/03/06 07:48:12;;;;;;;8.30;5.22;;;22.30;58.70;;;;;;5095452;28;20036;-74
2022/03/06 07:50:39;;;;;;;5.60;2.67;;;22.60;56.80;;;;;;5094272;28;20058;-73
2022/03/06 07:53:05;;;;;;;3.28;2.67;;;22.60;54.80;;;;;;5093209;28;20044;-74
2022/03/06 07:55:32;;;;;;;5.93;3.55;;;22.70;53.70;;;;;;5092370;28;20041;-72
2022/03/06 07:57:58;;;;;;;3.03;1.80;;;22.70;44.40;;;;;;5092327;28;20060;-72
2022/03/06 08:00:24;;;;;;;5.80;3.35;;;22.80;43.30;;;;;;5093945;28;20060;-71
2022/03/06 08:02:56;;;;;;;5.95;3.22;;;22.80;41.30;;;;;;5080126;28;20048;-71
2022/03/06 08:05:22;;;;;;;5.82;4.97;;;22.80;40.50;;;;;;5095229;28;20055;-71
2022/03/06 08:07:49;;;;;;;6.85;4.55;;;22.80;38.80;;;;;;5077255;28;20048;-72
2022/03/06 08:10:15;;;;;;;7.22;5.22;;;22.80;34.80;;;;;;5095139;28;20056;-74
2022/03/06 08:12:41;;;;;;;5.82;5.05;;;22.90;45.20;;;;;;5090061;28;20028;-73
2022/03/06 08:15:09;;;;;;;7.50;5.28;;;22.90;49.90;;;;;;5106524;28;20044;-74
2022/03/06 08:17:36;;;;;;;7.68;5.35;;;22.70;51.30;;;;;;5099716;28;20040;-73
2022/03/06 08:20:06;;;;;;;8.90;5.47;;;22.50;52.60;;;;;;5099315;28;20040;-72
2022/03/06 08:22:33;;;;;;;11.10;6.38;;;22.50;53.70;;;;;;5099630;28;20128;-71
2022/03/06 08:24:59;;;;;;;7.10;4.85;;;22.30;54.20;;;;;;5097959;28;20043;-71
2022/03/06 08:27:25;;;;;;;7.10;5.10;;;22.40;54.90;;;;;;5097911;28;20057;-75
2022/03/06 08:29:52;;;;;;;9.35;5.40;;;22.10;55.30;;;;;;5081406;28;20115;-72
2022/03/06 08:32:18;;;;;;;6.82;5.47;;;22.10;57.30;;;;;;5098673;28;20032;-73
2022/03/06 08:34:44;;;;;;;7.78;4.88;;;22.20;58.40;;;;;;5098524;28;20071;-74
2022/03/06 08:37:11;;;;;;;8.18;5.15;;;22.00;59.10;;;;;;5096557;28;20052;-73
2022/03/06 08:39:37;;;;;;;6.88;5.30;;;22.10;58.40;;;;;;5098641;28;20048;-74
2022/03/06 08:42:04;;;;;;;9.27;4.97;;;22.00;57.80;;;;;;5097810;28;20766;-73
2022/03/06 08:44:30;;;;;;;9.35;5.55;;;22.00;57.60;;;;;;5099008;28;20047;-73
2022/03/06 08:46:56;;;;;;;9.30;5.68;;;22.10;56.80;;;;;;5098385;28;20056;-74
2022/03/06 08:49:22;;;;;;;8.23;5.10;;;21.70;57.20;;;;;;5098840;28;20049;-72
2022/03/06 08:51:48;;;;;;;10.32;6.55;;;21.80;57.80;;;;;;5098789;28;20046;-74
2022/03/06 08:54:15;;;;;;;19.02;8.52;;;21.80;58.10;;;;;;5099251;28;20036;-73
2022/03/06 08:56:42;;;;;;;6.97;5.28;;;21.70;58.40;;;;;;5095282;28;20032;-73
2022/03/06 08:59:08;;;;;;;7.35;5.03;;;21.70;58.30;;;;;;5090017;28;20052;-72
2022/03/06 09:01:35;;;;;;;7.32;5.00;;;21.60;58.20;;;;;;5098175;28;20079;-73
2022/03/06 09:04:01;;;;;;;14.00;5.10;;;21.70;58.30;;;;;;5098242;28;20056;-73
2022/03/06 09:06:27;;;;;;;7.57;5.43;;;21.60;58.10;;;;;;5097480;28;20036;-73
2022/03/06 09:08:54;;;;;;;7.28;5.13;;;21.70;58.40;;;;;;5098055;28;20037;-73
2022/03/06 09:11:20;;;;;;;11.88;5.28;;;21.70;58.30;;;;;;5098114;28;20051;-73
2022/03/06 09:13:46;;;;;;;9.57;6.40;;;21.70;58.20;;;;;;5095989;28;20033;-73
2022/03/06 09:16:12;;;;;;;8.05;5.47;;;21.70;58.20;;;;;;5095368;28;20051;-73
2022/03/06 09:18:38;;;;;;;8.25;5.40;;;21.70;58.40;;;;;;5097530;28;20056;-73
2022/03/06 09:21:05;;;;;;;8.18;5.32;;;21.80;58.60;;;;;;5098466;28;20108;-73
2022/03/06 09:23:31;;;;;;;8.20;5.57;;;21.80;58.60;;;;;;5097874;28;20066;-73
2022/03/06 09:25:57;;;;;;;8.07;4.80;;;21.80;58.60;;;;;;5097009;28;20055;-74
2022/03/06 09:28:23;;;;;;;7.65;5.70;;;21.70;58.60;;;;;;5100434;28;20060;-73
2022/03/06 09:30:50;;;;;;;7.22;5.68;;;21.80;58.70;;;;;;5097557;28;20052;-74
2022/03/06 09:33:16;;;;;;;9.02;6.07;;;21.80;58.70;;;;;;5097878;28;20044;-72
2022/03/06 09:35:42;;;;;;;7.15;5.47;;;21.80;58.60;;;;;;5098306;28;20036;-73
2022/03/06 09:38:08;;;;;;;10.20;5.82;;;21.80;58.40;;;;;;5081291;28;20040;-74
2022/03/06 09:40:36;;;;;;;7.38;5.78;;;21.90;58.60;;;;;;5097623;28;20040;-73
2022/03/06 09:43:02;;;;;;;8.68;6.45;;;21.80;58.60;;;;;;5103146;28;20040;-74
2022/03/06 09:45:34;;;;;;;8.40;5.97;;;21.80;58.70;;;;;;5097532;28;20036;-73
2022/03/06 09:48:01;;;;;;;7.90;6.07;;;21.80;58.70;;;;;;5098381;28;20040;-75
2022/03/06 09:50:28;;;;;;;7.70;5.68;;;21.70;58.70;;;;;;5097703;28;20044;-75
2022/03/06 09:52:53;;;;;;;7.13;6.30;;;21.70;58.70;;;;;;5097267;28;20075;-73
2022/03/06 09:55:19;;;;;;;6.55;5.30;;;21.60;58.10;;;;;;5097409;28;20036;-73
2022/03/06 09:57:46;;;;;;;9.02;5.50;;;21.60;58.40;;;;;;5088649;28;20041;-75
2022/03/06 10:00:12;;;;;;;6.97;5.65;;;21.60;58.40;;;;;;5085104;28;20060;-76
2022/03/06 10:02:57;;;;;;;7.03;5.28;;;21.50;58.30;;;;;;5097124;28;20078;-76
2022/03/06 10:05:37;;;;;;;4.45;3.67;;;21.60;58.50;;;;;;5097463;28;20040;-76
2022/03/06 10:08:26;;;;;;;5.85;4.47;;;21.60;42.70;;;;;;5096799;28;20090;-76
2022/03/06 10:10:52;;;;;;;12.45;4.57;;;21.90;44.00;;;;;;5091381;28;20036;-72
2022/03/06 10:13:48;;;;;;;19.10;12.77;;;22.30;44.70;;;;;;5096378;28;20040;-75
2022/03/06 10:16:19;;;;;;;9.88;7.65;;;22.60;40.90;;;;;;5082067;28;20041;-75
2022/03/06 10:18:47;;;;;;;13.23;10.43;;;22.60;40.30;;;;;;5096285;28;20081;-73
2022/03/06 10:21:26;;;;;;;12.07;9.18;;;22.70;40.40;;;;;;5095290;28;20036;-75
2022/03/06 10:23:55;;;;;;;24.98;18.42;;;22.70;40.40;;;;;;5093633;28;20067;-74
2022/03/06 10:26:24;;;;;;;18.10;14.32;;;22.70;41.10;;;;;;5093713;28;20043;-75
2022/03/06 10:28:50;;;;;;;11.43;8.25;;;22.70;39.80;;;;;;5090671;28;20036;-75
2022/03/06 10:31:19;;;;;;;15.95;12.13;;;22.90;40.20;;;;;;5095082;28;20039;-75
2022/03/06 10:33:59;;;;;;;13.88;10.27;;;22.90;42.20;;;;;;5095466;28;20049;-75
2022/03/06 10:36:38;;;;;;;9.48;5.88;;;23.00;43.70;;;;;;5096079;28;20044;-75
2022/03/06 10:39:10;;;;;;;12.00;8.63;;;23.10;42.30;;;;;;5096839;28;20041;-75
2022/03/06 10:41:39;;;;;;;11.53;5.90;;;23.10;41.50;;;;;;5090889;28;20138;-74
2022/03/06 10:44:08;;;;;;;6.20;4.55;;;23.30;40.30;;;;;;5093855;28;20046;-74
2022/03/06 10:46:35;;;;;;;9.43;5.22;;;23.20;40.30;;;;;;5096383;28;20036;-77
2022/03/06 10:49:08;;;;;;;8.75;4.78;;;23.30;38.40;;;;;;5095966;28;20042;-76
2022/03/06 10:51:39;;;;;;;;;;;23.50;39.40;;;;;;5090246;28;20033;-73
2022/03/06 10:54:05;;;;;;;6.28;4.28;;;23.50;38.00;;;;;;5096128;28;19936;-73
2022/03/06 10:56:32;;;;;;;8.48;5.03;;;23.50;37.90;;;;;;5094126;28;20048;-71
2022/03/06 10:58:58;;;;;;;13.80;4.75;;;23.50;37.60;;;;;;5095784;28;20037;-72
2022/03/06 11:01:25;;;;;;;10.50;4.93;;;23.60;37.70;;;;;;5093820;28;20082;-73
2022/03/06 11:03:51;;;;;;;7.57;5.28;;;23.50;37.60;;;;;;5089180;28;20040;-74
2022/03/06 11:06:20;;;;;;;9.15;5.05;;;23.40;37.10;;;;;;5096225;28;20060;-74
2022/03/06 11:08:46;;;;;;;8.07;4.45;;;23.40;41.60;;;;;;5095821;28;20028;-74
2022/03/06 11:11:14;;;;;;;6.57;4.82;;;23.50;42.90;;;;;;5093767;28;20040;-74
2022/03/06 11:13:40;;;;;;;8.65;5.93;;;23.60;46.10;;;;;;5096055;28;20047;-72
2022/03/06 11:16:06;;;;;;;5.43;4.57;;;23.60;40.80;;;;;;5096547;28;20043;-73
2022/03/06 11:18:33;;;;;;;8.10;5.40;;;23.90;51.90;;;;;;5095371;28;20040;-74
2022/03/06 11:21:02;;;;;;;7.50;5.25;;;24.30;50.30;;;;;;5095682;28;20043;-74
2022/03/06 11:23:56;;;;;;;6.18;4.93;;;24.70;49.00;;;;;;5096278;28;20044;-74
2022/03/06 11:26:53;;;;;;;8.43;4.97;;;24.90;48.40;;;;;;5086895;28;20045;-74
2022/03/06 11:29:57;;;;;;;5.85;4.93;;;25.00;48.50;;;;;;5079224;28;20040;-73
2022/03/06 11:32:31;;;;;;;9.50;5.88;;;24.90;48.70;;;;;;5094654;28;20104;-75
2022/03/06 11:35:12;;;;;;;7.20;4.88;;;24.90;49.10;;;;;;5085103;28;20043;-74
2022/03/06 11:37:57;;;;;;;7.55;4.75;;;24.60;49.40;;;;;;5095855;28;20044;-74
2022/03/06 11:40:47;;;;;;;4.95;4.43;;;24.70;50.20;;;;;;5094524;28;20051;-75
2022/03/06 11:43:35;;;;;;;6.57;5.03;;;24.60;50.20;;;;;;5086011;28;20112;-75
2022/03/06 11:46:06;;;;;;;9.02;5.38;;;24.40;50.30;;;;;;5095078;28;20091;-75
2022/03/06 11:48:35;;;;;;;6.38;5.15;;;24.20;50.50;;;;;;5093993;28;20049;-75
2022/03/06 11:51:22;;;;;;;6.45;4.43;;;23.90;51.40;;;;;;5089641;28;20040;-73
2022/03/06 11:53:57;;;;;;;7.68;5.30;;;23.80;52.70;;;;;;5083658;28;20032;-74
2022/03/06 11:56:32;;;;;;;8.32;5.38;;;23.70;53.50;;;;;;5095444;28;20051;-73
2022/03/06 11:59:17;;;;;;;7.35;5.20;;;23.60;54.40;;;;;;5095590;28;20037;-73
2022/03/06 12:01:47;;;;;;;8.27;4.97;;;23.40;54.70;;;;;;5095243;28;20052;-73
2022/03/06 12:04:15;;;;;;;6.38;5.10;;;23.50;55.20;;;;;;5095664;28;20044;-73
2022/03/06 12:06:44;;;;;;;6.25;5.15;;;23.20;55.30;;;;;;5095787;28;20063;-73
2022/03/06 12:09:17;;;;;;;7.20;5.20;;;23.10;55.70;;;;;;5094294;28;20048;-74
2022/03/06 12:11:44;;;;;;;7.03;5.70;;;23.10;56.80;;;;;;5089315;28;20100;-73
2022/03/06 12:14:17;;;;;;;8.07;5.22;;;23.10;57.30;;;;;;5091893;28;20096;-74
2022/03/06 12:17:04;;;;;;;10.20;5.57;;;23.00;57.90;;;;;;5094687;28;20045;-74
2022/03/06 12:19:32;;;;;;;9.20;5.22;;;22.80;57.50;;;;;;5094483;28;20038;-73
2022/03/06 12:22:28;;;;;;;7.10;4.70;;;22.70;57.70;;;;;;5095466;28;20036;-73
2022/03/06 12:25:06;;;;;;;8.38;4.57;;;22.80;60.20;;;;;;5073713;28;20119;-74
2022/03/06 12:27:34;;;;;;;4.93;3.15;;;22.60;50.00;;;;;;5091620;28;20052;-72
2022/03/06 12:30:04;;;;;;;9.27;4.55;;;22.80;44.50;;;;;;5099988;28;20055;-71
2022/03/06 12:32:31;;;;;;;6.97;5.00;;;23.00;45.20;;;;;;5085882;28;20067;-71
2022/03/06 12:34:57;;;;;;;9.32;5.07;;;23.20;52.40;;;;;;5090812;28;20036;-72
2022/03/06 12:37:24;;;;;;;7.72;6.00;;;23.30;55.80;;;;;;5093467;28;20047;-72
2022/03/06 12:39:51;;;;;;;8.68;5.10;;;23.20;55.10;;;;;;5094794;28;20111;-71
2022/03/06 12:42:31;;;;;;;6.97;5.05;;;23.20;55.30;;;;;;5089553;28;20108;-71
2022/03/06 12:45:08;;;;;;;8.38;5.75;;;23.00;55.20;;;;;;5091926;28;20044;-71
2022/03/06 12:47:39;;;;;;;7.18;5.00;;;22.90;55.20;;;;;;5094973;28;20066;-72
2022/03/06 12:50:08;;;;;;;6.65;4.95;;;22.90;56.00;;;;;;5095234;28;20040;-72